sensor_id;sensor_type;location;lat;lon;timestamp;P1;durP1;ratioP1;P2;durP2;ratioP2
66371;SDS011;53168;51.146;17.120;2022-08-14T00:01:25;22.50;;;17.00;;
66371;SDS011;53168;51.146;17.120;2022-08-14T00:04:02;23.40;;;18.00;;
66371;SDS011;53168;51.146;17.120;2022-08-14T00:06:56;21.90;;;17.40;;
66371;SDS011;53168;51.146;17.120;2022-08-14T00:09:29;21.60;;;17.20;;
66371;SDS011;53168;51.146;17.120;2022-08-14T00:12:09;23.10;;;16.70;;
66371;SDS011;53168;51.146;17.120;2022-08-14T00:14:54;21.50;;;16.80;;
66371;SDS011;53168;51.146;17.120;2022-08-14T00:17:27;21.20;;;16.00;;
66371;SDS011;53168;51.146;17.120;2022-08-14T00:20:19;22.90;;;18.20;;
66371;SDS011;53168;51.146;17.120;2022-08-14T00:23:14;22.70;;;17.80;;
66371;SDS011;53168;51.146;17.120;2022-08-14T00:25:50;24.90;;;17.50;;
66371;SDS011;53168;51.146;17.120;2022-08-14T00:28:36;21.40;;;17.30;;
66371;SDS011;53168;51.146;17.120;2022-08-14T00:31:09;21.80;;;17.00;;
66371;SDS011;53168;51.146;17.120;2022-08-14T00:33:44;22.90;;;17.60;;
66371;SDS011;53168;51.146;17.120;2022-08-14T00:36:24;21.30;;;15.90;;
66371;SDS011;53168;51.146;17.120;2022-08-14T00:39:12;21.10;;;16.20;;
66371;SDS011;53168;51.146;17.120;2022-08-14T00:41:48;22.60;;;16.00;;
66371;SDS011;53168;51.146;17.120;2022-08-14T00:44:21;21.30;;;16.60;;
66371;SDS011;53168;51.146;17.120;2022-08-14T00:47:02;22.10;;;17.10;;
66371;SDS011;53168;51.146;17.120;2022-08-14T00:49:41;22.80;;;16.30;;
66371;SDS011;53168;51.146;17.120;2022-08-14T00:52:15;23.10;;;16.30;;
66371;SDS011;53168;51.146;17.120;2022-08-14T00:54:50;20.30;;;16.00;;
66371;SDS011;53168;51.146;17.120;2022-08-14T00:57:29;21.00;;;16.30;;
66371;SDS011;53168;51.146;17.120;2022-08-14T01:00:08;21.20;;;16.70;;
66371;SDS011;53168;51.146;17.120;2022-08-14T01:03:05;21.80;;;17.10;;
66371;SDS011;53168;51.146;17.120;2022-08-14T01:05:40;23.50;;;17.70;;
66371;SDS011;53168;51.146;17.120;2022-08-14T01:08:22;23.50;;;17.00;;
66371;SDS011;53168;51.146;17.120;2022-08-14T01:11:17;24.20;;;17.10;;
66371;SDS011;53168;51.146;17.120;2022-08-14T01:13:51;23.90;;;16.10;;
66371;SDS011;53168;51.146;17.120;2022-08-14T01:16:48;21.00;;;15.40;;
66371;SDS011;53168;51.146;17.120;2022-08-14T01:19:25;22.70;;;16.70;;
66371;SDS011;53168;51.146;17.120;2022-08-14T01:22:18;19.90;;;15.00;;
66371;SDS011;53168;51.146;17.120;2022-08-14T01:24:56;20.60;;;16.20;;
66371;SDS011;53168;51.146;17.120;2022-08-14T01:27:32;20.90;;;15.90;;
66371;SDS011;53168;51.146;17.120;2022-08-14T01:30:26;24.10;;;16.40;;
66371;SDS011;53168;51.146;17.120;2022-08-14T01:33:09;21.10;;;15.10;;
66371;SDS011;53168;51.146;17.120;2022-08-14T01:35:42;19.30;;;14.70;;
66371;SDS011;53168;51.146;17.120;2022-08-14T01:38:35;22.60;;;15.30;;
66371;SDS011;53168;51.146;17.120;2022-08-14T01:41:15;20.00;;;14.50;;
66371;SDS011;53168;51.146;17.120;2022-08-14T01:44:02;21.70;;;17.00;;
66371;SDS011;53168;51.146;17.120;2022-08-14T01:47:04;22.00;;;15.90;;
66371;SDS011;53168;51.146;17.120;2022-08-14T01:49:52;20.20;;;15.70;;
66371;SDS011;53168;51.146;17.120;2022-08-14T01:52:33;25.30;;;15.70;;
66371;SDS011;53168;51.146;17.120;2022-08-14T01:55:28;22.20;;;14.80;;
66371;SDS011;53168;51.146;17.120;2022-08-14T01:58:02;21.50;;;15.20;;
66371;SDS011;53168;51.146;17.120;2022-08-14T02:00:58;21.20;;;15.80;;
66371;SDS011;53168;51.146;17.120;2022-08-14T02:03:40;21.30;;;15.80;;
66371;SDS011;53168;51.146;17.120;2022-08-14T02:06:23;22.30;;;16.90;;
66371;SDS011;53168;51.146;17.120;2022-08-14T02:09:03;20.90;;;16.00;;
66371;SDS011;53168;51.146;17.120;2022-08-14T02:11:52;23.00;;;16.20;;
66371;SDS011;53168;51.146;17.120;2022-08-14T02:14:26;23.10;;;16.30;;
66371;SDS011;53168;51.146;17.120;2022-08-14T02:17:03;22.30;;;15.80;;
66371;SDS011;53168;51.146;17.120;2022-08-14T02:19:39;21.30;;;15.60;;
66371;SDS011;53168;51.146;17.120;2022-08-14T02:22:12;24.10;;;17.00;;
66371;SDS011;53168;51.146;17.120;2022-08-14T02:25:02;21.90;;;17.30;;
66371;SDS011;53168;51.146;17.120;2022-08-14T02:27:36;23.20;;;17.40;;
66371;SDS011;53168;51.146;17.120;2022-08-14T02:30:31;25.60;;;17.90;;
66371;SDS011;53168;51.146;17.120;2022-08-14T02:33:07;24.10;;;16.80;;
66371;SDS011;53168;51.146;17.120;2022-08-14T02:35:41;22.20;;;16.90;;
66371;SDS011;53168;51.146;17.120;2022-08-14T02:38:22;23.00;;;16.20;;
66371;SDS011;53168;51.146;17.120;2022-08-14T02:41:00;20.60;;;15.00;;
66371;SDS011;53168;51.146;17.120;2022-08-14T02:43:41;22.30;;;16.10;;
66371;SDS011;53168;51.146;17.120;2022-08-14T02:46:17;24.90;;;17.40;;
66371;SDS011;53168;51.146;17.120;2022-08-14T02:49:01;24.00;;;17.30;;
66371;SDS011;53168;51.146;17.120;2022-08-14T02:51:36;25.10;;;16.70;;
66371;SDS011;53168;51.146;17.120;2022-08-14T02:54:10;22.10;;;16.40;;
66371;SDS011;53168;51.146;17.120;2022-08-14T02:56:49;24.30;;;17.10;;
66371;SDS011;53168;51.146;17.120;2022-08-14T02:59:43;22.30;;;15.30;;
66371;SDS011;53168;51.146;17.120;2022-08-14T03:02:20;25.30;;;18.30;;
66371;SDS011;53168;51.146;17.120;2022-08-14T03:05:14;26.20;;;18.40;;
66371;SDS011;53168;51.146;17.120;2022-08-14T03:07:47;25.10;;;17.90;;
66371;SDS011;53168;51.146;17.120;2022-08-14T03:10:22;24.30;;;17.70;;
66371;SDS011;53168;51.146;17.120;2022-08-14T03:13:02;23.90;;;17.00;;
66371;SDS011;53168;51.146;17.120;2022-08-14T03:15:49;28.60;;;17.10;;
66371;SDS011;53168;51.146;17.120;2022-08-14T03:18:26;24.60;;;16.80;;
66371;SDS011;53168;51.146;17.120;2022-08-14T03:21:05;21.90;;;15.80;;
66371;SDS011;53168;51.146;17.120;2022-08-14T03:23:42;25.10;;;16.50;;
66371;SDS011;53168;51.146;17.120;2022-08-14T03:26:19;26.40;;;18.40;;
66371;SDS011;53168;51.146;17.120;2022-08-14T03:29:00;24.70;;;17.00;;
66371;SDS011;53168;51.146;17.120;2022-08-14T03:31:34;27.10;;;17.80;;
66371;SDS011;53168;51.146;17.120;2022-08-14T03:34:12;24.00;;;16.80;;
66371;SDS011;53168;51.146;17.120;2022-08-14T03:37:06;21.70;;;15.20;;
66371;SDS011;53168;51.146;17.120;2022-08-14T03:39:59;22.80;;;15.60;;
66371;SDS011;53168;51.146;17.120;2022-08-14T03:42:33;25.80;;;17.80;;
66371;SDS011;53168;51.146;17.120;2022-08-14T03:45:08;27.00;;;17.90;;
66371;SDS011;53168;51.146;17.120;2022-08-14T03:48:01;24.10;;;17.80;;
66371;SDS011;53168;51.146;17.120;2022-08-14T03:51:00;26.70;;;18.70;;
66371;SDS011;53168;51.146;17.120;2022-08-14T03:53:40;24.40;;;17.10;;
66371;SDS011;53168;51.146;17.120;2022-08-14T03:56:17;25.30;;;16.60;;
66371;SDS011;53168;51.146;17.120;2022-08-14T03:58:53;24.70;;;17.50;;
66371;SDS011;53168;51.146;17.120;2022-08-14T04:01:27;26.30;;;17.50;;
66371;SDS011;53168;51.146;17.120;2022-08-14T04:04:10;24.30;;;17.60;;
66371;SDS011;53168;51.146;17.120;2022-08-14T04:06:47;24.60;;;16.80;;
66371;SDS011;53168;51.146;17.120;2022-08-14T04:09:21;28.20;;;19.20;;
66371;SDS011;53168;51.146;17.120;2022-08-14T04:11:56;28.00;;;18.80;;
66371;SDS011;53168;51.146;17.120;2022-08-14T04:14:31;29.20;;;18.80;;
66371;SDS011;53168;51.146;17.120;2022-08-14T04:17:07;25.30;;;17.10;;
66371;SDS011;53168;51.146;17.120;2022-08-14T04:19:42;25.30;;;18.60;;
66371;SDS011;53168;51.146;17.120;2022-08-14T04:22:17;28.70;;;20.40;;
66371;SDS011;53168;51.146;17.120;2022-08-14T04:24:51;32.20;;;21.70;;
66371;SDS011;53168;51.146;17.120;2022-08-14T04:27:25;29.20;;;21.00;;
66371;SDS011;53168;51.146;17.120;2022-08-14T04:29:59;32.60;;;21.40;;
66371;SDS011;53168;51.146;17.120;2022-08-14T04:32:34;28.60;;;19.80;;
66371;SDS011;53168;51.146;17.120;2022-08-14T04:35:28;31.40;;;19.90;;
66371;SDS011;53168;51.146;17.120;2022-08-14T04:38:21;30.80;;;20.50;;
66371;SDS011;53168;51.146;17.120;2022-08-14T04:41:16;28.20;;;19.50;;
66371;SDS011;53168;51.146;17.120;2022-08-14T04:44:12;27.60;;;18.70;;
66371;SDS011;53168;51.146;17.120;2022-08-14T04:47:06;28.50;;;20.10;;
66371;SDS011;53168;51.146;17.120;2022-08-14T04:50:01;27.30;;;20.00;;
66371;SDS011;53168;51.146;17.120;2022-08-14T04:52:36;28.40;;;20.20;;
66371;SDS011;53168;51.146;17.120;2022-08-14T04:55:11;31.30;;;20.30;;
66371;SDS011;53168;51.146;17.120;2022-08-14T04:57:44;29.20;;;20.10;;
66371;SDS011;53168;51.146;17.120;2022-08-14T05:00:19;28.90;;;18.10;;
66371;SDS011;53168;51.146;17.120;2022-08-14T05:02:54;26.10;;;18.80;;
66371;SDS011;53168;51.146;17.120;2022-08-14T05:05:27;25.50;;;18.10;;
66371;SDS011;53168;51.146;17.120;2022-08-14T05:08:08;23.20;;;16.50;;
66371;SDS011;53168;51.146;17.120;2022-08-14T05:11:04;25.20;;;16.90;;
66371;SDS011;53168;51.146;17.120;2022-08-14T05:13:42;23.70;;;16.40;;
66371;SDS011;53168;51.146;17.120;2022-08-14T05:16:36;22.50;;;16.70;;
66371;SDS011;53168;51.146;17.120;2022-08-14T05:19:09;23.20;;;17.50;;
66371;SDS011;53168;51.146;17.120;2022-08-14T05:21:56;20.50;;;15.10;;
66371;SDS011;53168;51.146;17.120;2022-08-14T05:24:48;23.00;;;15.90;;
66371;SDS011;53168;51.146;17.120;2022-08-14T05:27:21;24.20;;;16.00;;
66371;SDS011;53168;51.146;17.120;2022-08-14T05:30:04;21.60;;;15.60;;
66371;SDS011;53168;51.146;17.120;2022-08-14T05:32:39;19.40;;;15.30;;
66371;SDS011;53168;51.146;17.120;2022-08-14T05:35:16;20.40;;;16.50;;
66371;SDS011;53168;51.146;17.120;2022-08-14T05:37:51;20.30;;;15.50;;
66371;SDS011;53168;51.146;17.120;2022-08-14T05:40:24;20.80;;;15.50;;
66371;SDS011;53168;51.146;17.120;2022-08-14T05:42:57;19.20;;;16.10;;
66371;SDS011;53168;51.146;17.120;2022-08-14T05:45:36;20.50;;;16.10;;
66371;SDS011;53168;51.146;17.120;2022-08-14T05:48:14;21.60;;;16.40;;
66371;SDS011;53168;51.146;17.120;2022-08-14T05:51:03;19.70;;;16.90;;
66371;SDS011;53168;51.146;17.120;2022-08-14T05:53:39;22.70;;;17.60;;
66371;SDS011;53168;51.146;17.120;2022-08-14T05:56:30;23.70;;;17.00;;
66371;SDS011;53168;51.146;17.120;2022-08-14T05:59:06;22.60;;;17.00;;
66371;SDS011;53168;51.146;17.120;2022-08-14T06:01:40;20.30;;;16.00;;
66371;SDS011;53168;51.146;17.120;2022-08-14T06:04:15;25.30;;;18.90;;
66371;SDS011;53168;51.146;17.120;2022-08-14T06:06:49;21.90;;;17.80;;
66371;SDS011;53168;51.146;17.120;2022-08-14T06:09:22;21.70;;;18.10;;
66371;SDS011;53168;51.146;17.120;2022-08-14T06:11:56;22.00;;;17.10;;
66371;SDS011;53168;51.146;17.120;2022-08-14T06:14:29;24.80;;;17.30;;
66371;SDS011;53168;51.146;17.120;2022-08-14T06:17:04;22.10;;;17.10;;
66371;SDS011;53168;51.146;17.120;2022-08-14T06:19:37;22.80;;;18.80;;
66371;SDS011;53168;51.146;17.120;2022-08-14T06:22:10;22.10;;;18.50;;
66371;SDS011;53168;51.146;17.120;2022-08-14T06:24:46;21.60;;;18.80;;
66371;SDS011;53168;51.146;17.120;2022-08-14T06:27:19;22.50;;;18.10;;
66371;SDS011;53168;51.146;17.120;2022-08-14T06:29:53;23.80;;;18.00;;
66371;SDS011;53168;51.146;17.120;2022-08-14T06:32:26;25.20;;;17.80;;
66371;SDS011;53168;51.146;17.120;2022-08-14T06:35:21;24.20;;;18.50;;
66371;SDS011;53168;51.146;17.120;2022-08-14T06:37:57;26.20;;;18.80;;
66371;SDS011;53168;51.146;17.120;2022-08-14T06:40:35;25.50;;;20.00;;
66371;SDS011;53168;51.146;17.120;2022-08-14T06:43:16;24.60;;;20.80;;
66371;SDS011;53168;51.146;17.120;2022-08-14T06:45:51;24.10;;;20.30;;
66371;SDS011;53168;51.146;17.120;2022-08-14T06:48:26;23.40;;;18.30;;
66371;SDS011;53168;51.146;17.120;2022-08-14T06:51:02;25.30;;;18.40;;
66371;SDS011;53168;51.146;17.120;2022-08-14T06:53:35;21.70;;;17.70;;
66371;SDS011;53168;51.146;17.120;2022-08-14T06:56:08;20.60;;;17.50;;
66371;SDS011;53168;51.146;17.120;2022-08-14T06:58:43;24.60;;;19.40;;
66371;SDS011;53168;51.146;17.120;2022-08-14T07:01:16;26.10;;;20.10;;
66371;SDS011;53168;51.146;17.120;2022-08-14T07:04:08;23.80;;;19.00;;
66371;SDS011;53168;51.146;17.120;2022-08-14T07:07:02;24.20;;;18.80;;
66371;SDS011;53168;51.146;17.120;2022-08-14T07:09:36;20.20;;;16.40;;
66371;SDS011;53168;51.146;17.120;2022-08-14T07:12:20;23.80;;;18.40;;
66371;SDS011;53168;51.146;17.120;2022-08-14T07:15:16;22.70;;;19.00;;
66371;SDS011;53168;51.146;17.120;2022-08-14T07:17:50;22.10;;;18.20;;
66371;SDS011;53168;51.146;17.120;2022-08-14T07:20:26;24.40;;;18.20;;
66371;SDS011;53168;51.146;17.120;2022-08-14T07:23:03;21.70;;;18.50;;
66371;SDS011;53168;51.146;17.120;2022-08-14T07:25:49;23.60;;;19.00;;
66371;SDS011;53168;51.146;17.120;2022-08-14T07:28:28;23.30;;;18.10;;
66371;SDS011;53168;51.146;17.120;2022-08-14T07:31:04;23.20;;;19.40;;
66371;SDS011;53168;51.146;17.120;2022-08-14T07:33:41;22.80;;;17.70;;
66371;SDS011;53168;51.146;17.120;2022-08-14T07:36:21;20.50;;;17.40;;
66371;SDS011;53168;51.146;17.120;2022-08-14T07:39:00;19.10;;;15.60;;
66371;SDS011;53168;51.146;17.120;2022-08-14T07:44:17;23.60;;;17.10;;
66371;SDS011;53168;51.146;17.120;2022-08-14T07:47:11;19.90;;;15.80;;
66371;SDS011;53168;51.146;17.120;2022-08-14T07:49:56;20.60;;;15.60;;
66371;SDS011;53168;51.146;17.120;2022-08-14T07:52:32;18.60;;;15.10;;
66371;SDS011;53168;51.146;17.120;2022-08-14T07:55:07;22.80;;;17.30;;
66371;SDS011;53168;51.146;17.120;2022-08-14T07:57:45;20.40;;;16.90;;
66371;SDS011;53168;51.146;17.120;2022-08-14T08:00:22;18.80;;;15.90;;
66371;SDS011;53168;51.146;17.120;2022-08-14T08:03:02;18.50;;;15.40;;
66371;SDS011;53168;51.146;17.120;2022-08-14T08:05:40;17.70;;;14.80;;
66371;SDS011;53168;51.146;17.120;2022-08-14T08:08:16;19.40;;;14.70;;
66371;SDS011;53168;51.146;17.120;2022-08-14T08:10:57;19.90;;;15.70;;
66371;SDS011;53168;51.146;17.120;2022-08-14T08:13:41;19.00;;;15.50;;
66371;SDS011;53168;51.146;17.120;2022-08-14T08:16:23;20.10;;;16.20;;
66371;SDS011;53168;51.146;17.120;2022-08-14T08:18:59;18.80;;;16.00;;
66371;SDS011;53168;51.146;17.120;2022-08-14T08:21:42;18.70;;;14.50;;
66371;SDS011;53168;51.146;17.120;2022-08-14T08:24:17;17.60;;;15.20;;
66371;SDS011;53168;51.146;17.120;2022-08-14T08:26:50;16.40;;;14.50;;
66371;SDS011;53168;51.146;17.120;2022-08-14T08:29:24;16.20;;;14.10;;
66371;SDS011;53168;51.146;17.120;2022-08-14T08:31:58;17.20;;;13.30;;
66371;SDS011;53168;51.146;17.120;2022-08-14T08:34:44;15.30;;;13.70;;
66371;SDS011;53168;51.146;17.120;2022-08-14T08:37:19;15.40;;;13.70;;
66371;SDS011;53168;51.146;17.120;2022-08-14T08:39:59;16.70;;;14.10;;
66371;SDS011;53168;51.146;17.120;2022-08-14T08:42:35;15.50;;;13.90;;
66371;SDS011;53168;51.146;17.120;2022-08-14T08:45:17;14.70;;;13.20;;
66371;SDS011;53168;51.146;17.120;2022-08-14T08:47:52;16.60;;;14.10;;
66371;SDS011;53168;51.146;17.120;2022-08-14T08:50:29;14.20;;;12.70;;
66371;SDS011;53168;51.146;17.120;2022-08-14T08:53:04;14.50;;;13.00;;
66371;SDS011;53168;51.146;17.120;2022-08-14T08:55:40;14.80;;;12.40;;
66371;SDS011;53168;51.146;17.120;2022-08-14T08:58:18;13.60;;;12.10;;
66371;SDS011;53168;51.146;17.120;2022-08-14T09:00:57;14.90;;;13.40;;
66371;SDS011;53168;51.146;17.120;2022-08-14T09:03:41;15.70;;;13.20;;
66371;SDS011;53168;51.146;17.120;2022-08-14T09:06:18;15.70;;;13.10;;
66371;SDS011;53168;51.146;17.120;2022-08-14T09:09:19;17.70;;;15.80;;
66371;SDS011;53168;51.146;17.120;2022-08-14T09:12:03;18.00;;;15.50;;
66371;SDS011;53168;51.146;17.120;2022-08-14T09:14:43;19.20;;;16.50;;
66371;SDS011;53168;51.146;17.120;2022-08-14T09:17:21;16.80;;;14.00;;
66371;SDS011;53168;51.146;17.120;2022-08-14T09:19:56;19.20;;;16.10;;
66371;SDS011;53168;51.146;17.120;2022-08-14T09:22:33;17.30;;;14.60;;
66371;SDS011;53168;51.146;17.120;2022-08-14T09:25:17;17.00;;;15.30;;
66371;SDS011;53168;51.146;17.120;2022-08-14T09:28:12;23.80;;;13.60;;
66371;SDS011;53168;51.146;17.120;2022-08-14T09:30:49;16.60;;;13.90;;
66371;SDS011;53168;51.146;17.120;2022-08-14T09:33:52;15.10;;;13.50;;
66371;SDS011;53168;51.146;17.120;2022-08-14T09:36:51;14.50;;;12.50;;
66371;SDS011;53168;51.146;17.120;2022-08-14T09:39:55;17.60;;;13.60;;
66371;SDS011;53168;51.146;17.120;2022-08-14T09:42:56;16.60;;;14.70;;
66371;SDS011;53168;51.146;17.120;2022-08-14T09:45:45;16.20;;;14.40;;
66371;SDS011;53168;51.146;17.120;2022-08-14T09:48:24;15.80;;;14.20;;
66371;SDS011;53168;51.146;17.120;2022-08-14T09:51:01;18.20;;;14.80;;
66371;SDS011;53168;51.146;17.120;2022-08-14T09:53:40;18.30;;;15.10;;
66371;SDS011;53168;51.146;17.120;2022-08-14T09:56:45;17.70;;;15.00;;
66371;SDS011;53168;51.146;17.120;2022-08-14T09:59:26;18.60;;;14.60;;
66371;SDS011;53168;51.146;17.120;2022-08-14T10:02:20;16.40;;;14.60;;
66371;SDS011;53168;51.146;17.120;2022-08-14T10:05:03;18.90;;;14.20;;
66371;SDS011;53168;51.146;17.120;2022-08-14T10:07:47;18.70;;;15.30;;
66371;SDS011;53168;51.146;17.120;2022-08-14T10:10:32;20.70;;;16.10;;
66371;SDS011;53168;51.146;17.120;2022-08-14T10:13:23;16.70;;;14.40;;
66371;SDS011;53168;51.146;17.120;2022-08-14T10:16:13;16.10;;;14.30;;
66371;SDS011;53168;51.146;17.120;2022-08-14T10:19:02;16.80;;;13.90;;
66371;SDS011;53168;51.146;17.120;2022-08-14T10:25:10;15.60;;;12.00;;
66371;SDS011;53168;51.146;17.120;2022-08-14T10:27:57;15.20;;;13.40;;
66371;SDS011;53168;51.146;17.120;2022-08-14T10:30:34;15.60;;;11.90;;
66371;SDS011;53168;51.146;17.120;2022-08-14T10:33:08;14.90;;;12.20;;
66371;SDS011;53168;51.146;17.120;2022-08-14T10:35:42;19.50;;;15.20;;
66371;SDS011;53168;51.146;17.120;2022-08-14T10:38:27;18.00;;;14.30;;
66371;SDS011;53168;51.146;17.120;2022-08-14T10:41:14;16.00;;;13.00;;
66371;SDS011;53168;51.146;17.120;2022-08-14T10:44:06;16.60;;;13.40;;
66371;SDS011;53168;51.146;17.120;2022-08-14T10:46:54;14.90;;;13.00;;
66371;SDS011;53168;51.146;17.120;2022-08-14T10:49:59;13.90;;;11.60;;
66371;SDS011;53168;51.146;17.120;2022-08-14T10:52:34;13.30;;;11.00;;
66371;SDS011;53168;51.146;17.120;2022-08-14T10:55:14;15.90;;;12.60;;
66371;SDS011;53168;51.146;17.120;2022-08-14T10:57:52;16.90;;;12.70;;
66371;SDS011;53168;51.146;17.120;2022-08-14T11:00:27;14.30;;;12.80;;
66371;SDS011;53168;51.146;17.120;2022-08-14T11:03:07;16.90;;;12.60;;
66371;SDS011;53168;51.146;17.120;2022-08-14T11:05:56;14.70;;;11.50;;
66371;SDS011;53168;51.146;17.120;2022-08-14T11:08:32;13.80;;;11.80;;
66371;SDS011;53168;51.146;17.120;2022-08-14T11:11:07;20.70;;;11.50;;
66371;SDS011;53168;51.146;17.120;2022-08-14T11:13:43;15.30;;;12.50;;
66371;SDS011;53168;51.146;17.120;2022-08-14T11:16:17;15.50;;;11.70;;
66371;SDS011;53168;51.146;17.120;2022-08-14T11:18:52;15.90;;;13.80;;
66371;SDS011;53168;51.146;17.120;2022-08-14T11:21:29;19.60;;;15.10;;
66371;SDS011;53168;51.146;17.120;2022-08-14T11:24:10;19.00;;;15.70;;
66371;SDS011;53168;51.146;17.120;2022-08-14T11:27:07;18.20;;;15.00;;
66371;SDS011;53168;51.146;17.120;2022-08-14T11:29:43;18.80;;;15.40;;
66371;SDS011;53168;51.146;17.120;2022-08-14T11:32:29;17.20;;;13.90;;
66371;SDS011;53168;51.146;17.120;2022-08-14T11:35:04;16.30;;;13.60;;
66371;SDS011;53168;51.146;17.120;2022-08-14T11:37:51;17.30;;;15.10;;
66371;SDS011;53168;51.146;17.120;2022-08-14T11:40:29;18.80;;;15.50;;
66371;SDS011;53168;51.146;17.120;2022-08-14T11:43:05;19.20;;;15.60;;
66371;SDS011;53168;51.146;17.120;2022-08-14T11:45:44;18.10;;;14.20;;
66371;SDS011;53168;51.146;17.120;2022-08-14T11:48:23;13.70;;;11.30;;
66371;SDS011;53168;51.146;17.120;2022-08-14T11:51:18;14.40;;;11.80;;
66371;SDS011;53168;51.146;17.120;2022-08-14T11:54:04;12.00;;;10.70;;
66371;SDS011;53168;51.146;17.120;2022-08-14T11:56:39;12.40;;;10.10;;
66371;SDS011;53168;51.146;17.120;2022-08-14T11:59:18;11.10;;;9.20;;
66371;SDS011;53168;51.146;17.120;2022-08-14T12:02:10;11.40;;;9.30;;
66371;SDS011;53168;51.146;17.120;2022-08-14T12:07:48;9.70;;;8.00;;
66371;SDS011;53168;51.146;17.120;2022-08-14T12:10:22;10.70;;;7.60;;
66371;SDS011;53168;51.146;17.120;2022-08-14T12:13:13;8.20;;;7.20;;
66371;SDS011;53168;51.146;17.120;2022-08-14T12:15:58;10.10;;;8.80;;
66371;SDS011;53168;51.146;17.120;2022-08-14T12:18:43;12.30;;;9.90;;
66371;SDS011;53168;51.146;17.120;2022-08-14T12:21:20;10.50;;;9.40;;
66371;SDS011;53168;51.146;17.120;2022-08-14T12:24:04;12.70;;;11.10;;
66371;SDS011;53168;51.146;17.120;2022-08-14T12:26:59;13.60;;;11.00;;
66371;SDS011;53168;51.146;17.120;2022-08-14T12:29:32;12.30;;;11.00;;
66371;SDS011;53168;51.146;17.120;2022-08-14T12:32:06;15.40;;;11.20;;
66371;SDS011;53168;51.146;17.120;2022-08-14T12:34:43;12.20;;;10.90;;
66371;SDS011;53168;51.146;17.120;2022-08-14T12:37:30;12.00;;;10.70;;
66371;SDS011;53168;51.146;17.120;2022-08-14T12:40:17;13.90;;;11.40;;
66371;SDS011;53168;51.146;17.120;2022-08-14T12:43:00;15.20;;;12.60;;
66371;SDS011;53168;51.146;17.120;2022-08-14T12:45:34;14.00;;;12.70;;
66371;SDS011;53168;51.146;17.120;2022-08-14T12:48:07;15.90;;;13.90;;
66371;SDS011;53168;51.146;17.120;2022-08-14T12:51:00;13.30;;;12.00;;
66371;SDS011;53168;51.146;17.120;2022-08-14T12:53:36;12.70;;;10.00;;
66371;SDS011;53168;51.146;17.120;2022-08-14T12:56:10;11.70;;;10.30;;
66371;SDS011;53168;51.146;17.120;2022-08-14T12:59:03;11.40;;;10.20;;
66371;SDS011;53168;51.146;17.120;2022-08-14T13:01:37;16.60;;;11.30;;
66371;SDS011;53168;51.146;17.120;2022-08-14T13:04:29;15.90;;;10.00;;
66371;SDS011;53168;51.146;17.120;2022-08-14T13:07:05;16.30;;;12.20;;
66371;SDS011;53168;51.146;17.120;2022-08-14T13:09:38;14.10;;;11.90;;
66371;SDS011;53168;51.146;17.120;2022-08-14T13:12:11;15.30;;;12.70;;
66371;SDS011;53168;51.146;17.120;2022-08-14T13:15:07;18.60;;;14.00;;
66371;SDS011;53168;51.146;17.120;2022-08-14T13:17:44;16.10;;;13.00;;
66371;SDS011;53168;51.146;17.120;2022-08-14T13:20:21;18.70;;;14.10;;
66371;SDS011;53168;51.146;17.120;2022-08-14T13:23:02;17.00;;;12.90;;
66371;SDS011;53168;51.146;17.120;2022-08-14T13:25:37;17.50;;;14.40;;
66371;SDS011;53168;51.146;17.120;2022-08-14T13:28:26;17.50;;;13.60;;
66371;SDS011;53168;51.146;17.120;2022-08-14T13:31:04;19.30;;;13.80;;
66371;SDS011;53168;51.146;17.120;2022-08-14T13:33:41;17.00;;;13.10;;
66371;SDS011;53168;51.146;17.120;2022-08-14T13:36:16;16.70;;;13.10;;
66371;SDS011;53168;51.146;17.120;2022-08-14T13:39:09;18.40;;;13.60;;
66371;SDS011;53168;51.146;17.120;2022-08-14T13:41:46;16.90;;;13.30;;
66371;SDS011;53168;51.146;17.120;2022-08-14T13:44:27;15.50;;;12.20;;
66371;SDS011;53168;51.146;17.120;2022-08-14T13:47:09;15.20;;;10.90;;
66371;SDS011;53168;51.146;17.120;2022-08-14T13:49:46;16.70;;;12.70;;
66371;SDS011;53168;51.146;17.120;2022-08-14T13:52:29;17.40;;;13.50;;
66371;SDS011;53168;51.146;17.120;2022-08-14T13:55:25;17.10;;;12.60;;
66371;SDS011;53168;51.146;17.120;2022-08-14T13:58:01;15.70;;;12.50;;
66371;SDS011;53168;51.146;17.120;2022-08-14T14:00:40;15.70;;;12.70;;
66371;SDS011;53168;51.146;17.120;2022-08-14T14:03:24;14.50;;;12.60;;
66371;SDS011;53168;51.146;17.120;2022-08-14T14:06:02;17.00;;;13.60;;
66371;SDS011;53168;51.146;17.120;2022-08-14T14:08:45;17.70;;;14.20;;
66371;SDS011;53168;51.146;17.120;2022-08-14T14:11:19;15.20;;;12.50;;
66371;SDS011;53168;51.146;17.120;2022-08-14T14:13:59;15.40;;;11.80;;
66371;SDS011;53168;51.146;17.120;2022-08-14T14:16:34;16.50;;;12.80;;
66371;SDS011;53168;51.146;17.120;2022-08-14T14:19:09;18.80;;;13.40;;
66371;SDS011;53168;51.146;17.120;2022-08-14T14:21:44;18.00;;;13.10;;
66371;SDS011;53168;51.146;17.120;2022-08-14T14:24:21;15.90;;;12.90;;
66371;SDS011;53168;51.146;17.120;2022-08-14T14:27:04;16.00;;;12.70;;
66371;SDS011;53168;51.146;17.120;2022-08-14T14:29:59;16.40;;;12.50;;
66371;SDS011;53168;51.146;17.120;2022-08-14T14:32:55;17.00;;;12.80;;
66371;SDS011;53168;51.146;17.120;2022-08-14T14:35:36;16.80;;;12.90;;
66371;SDS011;53168;51.146;17.120;2022-08-14T14:38:16;15.80;;;13.00;;
66371;SDS011;53168;51.146;17.120;2022-08-14T14:41:04;16.70;;;13.40;;
66371;SDS011;53168;51.146;17.120;2022-08-14T14:43:42;15.00;;;13.10;;
66371;SDS011;53168;51.146;17.120;2022-08-14T14:46:22;16.70;;;14.30;;
66371;SDS011;53168;51.146;17.120;2022-08-14T14:49:23;14.70;;;12.80;;
66371;SDS011;53168;51.146;17.120;2022-08-14T14:52:23;17.00;;;13.60;;
66371;SDS011;53168;51.146;17.120;2022-08-14T14:55:19;15.70;;;13.10;;
66371;SDS011;53168;51.146;17.120;2022-08-14T14:58:04;16.00;;;13.20;;
66371;SDS011;53168;51.146;17.120;2022-08-14T15:00:43;18.30;;;15.00;;
66371;SDS011;53168;51.146;17.120;2022-08-14T15:03:18;16.20;;;14.00;;
66371;SDS011;53168;51.146;17.120;2022-08-14T15:05:51;18.80;;;14.40;;
66371;SDS011;53168;51.146;17.120;2022-08-14T15:08:25;16.40;;;12.70;;
66371;SDS011;53168;51.146;17.120;2022-08-14T15:11:20;15.80;;;12.20;;
66371;SDS011;53168;51.146;17.120;2022-08-14T15:13:53;16.80;;;12.30;;
66371;SDS011;53168;51.146;17.120;2022-08-14T15:16:51;17.00;;;12.80;;
66371;SDS011;53168;51.146;17.120;2022-08-14T15:19:30;16.00;;;12.60;;
66371;SDS011;53168;51.146;17.120;2022-08-14T15:22:27;15.20;;;11.80;;
66371;SDS011;53168;51.146;17.120;2022-08-14T15:25:03;13.40;;;11.30;;
66371;SDS011;53168;51.146;17.120;2022-08-14T15:27:39;13.00;;;10.50;;
66371;SDS011;53168;51.146;17.120;2022-08-14T15:30:19;11.80;;;9.90;;
66371;SDS011;53168;51.146;17.120;2022-08-14T15:33:15;14.90;;;11.20;;
66371;SDS011;53168;51.146;17.120;2022-08-14T15:36:29;12.60;;;10.00;;
66371;SDS011;53168;51.146;17.120;2022-08-14T15:39:05;11.60;;;9.80;;